x

East Dellwood (46207) Wave Buoy

5:00pm - Sun 19th Apr 2015 All times are PDT. -7 hours from GMT.

  • Sig Wave height 8.2ft
  • Peak Period 14s
  • Wind
    7mph, 9mph gusts
  • Sea Temp 51°f
  • Air Temp 50°f
  • Sea Pressure 1022.7mb
  • East Dellwood
  • East Dellwood

More Historic Weather Station data

Upgrade to MSW Pro to gain access to the past 30 days of data for over 8000 Wavebouys and Weather Stations around the globe.

Join Pro

Comparision Forecast

View Surf forecast
   
Sun 04/19 5:00pm 8ft 14s 7 9 mph 1022.7mb 51f 50f
4:00pm 7.5ft 14s 7 9 mph 1023.4mb 51f 50f
3:00pm 8ft 12s 7 9 mph 1024.1mb 51f 50f
2:00pm 8ft 12s 7 9 mph 1024.6mb 51f 50f
1:00pm 8.5ft 14s 4 7 mph 1025mb 51f 50f
12:00pm 8ft 12s 7
mph
1025.4mb 51f 49f
11:00am 8ft 13s 4 7 mph 1025.9mb 50f 50f
10:00am 8ft 13s 4 7 mph 1026.3mb 50f 49f
9:00am 9ft 14s 4
mph
1026.7mb 50f 49f
8:00am 8.5ft 14s 2 4 mph 1027.1mb 50f 48f
7:00am 8.5ft 14s 2 4 mph 1027.1mb 49f 48f
6:00am 8ft 12s  -  2 mph 1027.4mb 50f 48f
5:00am 8ft 14s 2 4 mph 1027.7mb 50f 48f
4:00am 7.5ft 11s  -  4 mph 1027.7mb 50f 48f
3:00am 7ft 14s 4 7 mph 1028mb 50f 48f
2:00am 6ft 14s 4 7 mph 1028.5mb 50f 48f
1:00am 6ft 14s 4 9 mph 1028.7mb 50f 48f
12:00am 6ft 10s 7 9 mph 1028.9mb 50f 48f
Sat 04/18 11:00pm 5ft 11s 7 9 mph 1029.2mb 50f 48f
10:00pm 5ft 10s 7 9 mph 1029.6mb 50f 48f
9:00pm 5ft 9s 7 9 mph 1029.9mb 50f 48f
8:00pm 5ft 10s 7 9 mph 1030.1mb 50f 48f
7:00pm 5ft 9s 9 11 mph 1030.8mb 50f 48f
6:00pm 5ft 10s 9 11 mph 1031.5mb 51f 48f
5:00pm 5ft 10s 9
mph
1032mb 50f 48f
4:00pm 5ft 11s 9
mph
1032.1mb 50f 48f
3:00pm 5.5ft 11s 9
mph
1032.3mb 50f 48f
2:00pm 6ft 11s 9 11 mph 1032.4mb 50f 48f
1:00pm 6ft 11s 9 11 mph 1032.7mb 50f 48f
12:00pm 6ft 12s 9 13 mph 1032.7mb 50f 48f
11:00am 6ft 11s 9 11 mph 1032.9mb 50f 48f
10:00am 6ft 12s 11 13 mph 1033.2mb 50f 48f
9:00am 6.5ft 12s 9 11 mph 1033.1mb 50f 47f
8:00am 6.5ft 10s 11 13 mph 1033.1mb 50f 47f
7:00am 6.5ft 12s 11 13 mph 1033.3mb 50f 47f
6:00am 6.5ft 12s 13 16 mph 1033.1mb 50f 47f
5:00am 7ft 12s 13 16 mph 1033.1mb 50f 47f
4:00am 7ft 12s 13 18 mph 1032.9mb 50f 47f
3:00am 6.5ft 11s 11 13 mph 1032.8mb 50f 47f
2:00am 7.5ft 12s 11 13 mph 1033mb 50f 47f
1:00am 8ft 14s 11 13 mph 1032.9mb 50f 47f
12:00am 7.5ft 12s 11 13 mph 1032.9mb 50f 48f
Fri 04/17 11:00pm 8.5ft 11s 11 13 mph 1032.9mb 50f 48f
10:00pm 9ft 13s 11 13 mph 1033mb 50f 48f
9:00pm 9ft 10s 13 16 mph 1032.8mb 50f 48f
8:00pm 9ft 12s 13 18 mph 1032.6mb 50f 48f
7:00pm 8.5ft 13s 13 18 mph 1032.5mb 50f 49f
6:00pm 9.5ft 12s 16 18 mph 1032.3mb 50f 48f
5:00pm 9.5ft 13s 13 18 mph 1032.3mb 50f 49f
4:00pm 10ft 14s 13 16 mph 1032.2mb 50f 49f
3:00pm 10ft 14s 13 16 mph 1032.1mb 50f 48f
2:00pm 10ft 14s 11 16 mph 1031.7mb 50f 48f
1:00pm 10.5ft 14s 13 18 mph 1031.4mb 50f 48f
12:00pm 11ft 12s 13 16 mph 1030.9mb 50f 48f
11:00am 11.5ft 14s 13 18 mph 1030.3mb 50f 48f
10:00am 12.5ft 14s 13 18 mph 1029.5mb 50f 48f
9:00am 12ft 12s 16 20 mph 1028.9mb 50f 48f
8:00am 13.5ft 14s 13 20 mph 1028.1mb 50f 48f
7:00am 14ft 14s 18 22 mph 1027mb 50f 48f
6:00am 15.5ft 14s 18 22 mph 1025.5mb 50f 48f
5:00am 14ft 13s 22 29 mph 1025.1mb 50f 48f
4:00am  -   -  25
mph
1023.8mb - 47f
3:00am 15ft 15s 29 36 mph 1022.4mb 50f 47f
2:00am 15ft 15s 31 38 mph 1021.2mb 50f 47f
1:00am 15ft 14s 27 34 mph 1019.4mb 50f 46f
12:00am 13.5ft 16s 31 40 mph 1017.1mb 50f 50f
Thu 04/16 11:00pm 12.5ft 15s 31 38 mph 1016.6mb 50f 51f
10:00pm 12.5ft 15s 27 34 mph 1017.5mb 50f 51f
9:00pm 11ft 15s 27 34 mph 1017.9mb 50f 51f
8:00pm 12ft 13s 25 31 mph 1018.5mb 50f 51f
7:00pm 12.5ft 17s 25 31 mph 1019.6mb 50f 51f
6:00pm 13ft 16s 22 27 mph 1020.6mb 50f 51f
5:00pm 14.5ft 14s 18 22 mph 1021.4mb 50f 50f
4:00pm 15ft 14s 18 25 mph 1022.6mb 50f 48f
3:00pm 18.5ft 14s 13 20 mph 1023.6mb 50f 47f
2:00pm 18ft 16s 11 18 mph 1024.4mb 50f 47f
1:00pm 16.5ft 15s 9 16 mph 1025.2mb 50f 47f
12:00pm 15.5ft 15s 7 13 mph 1025.7mb 50f 47f
11:00am 16ft 15s 11 18 mph 1025.2mb 50f 47f
10:00am 17.5ft 17s 4 9 mph 1025.6mb 50f 48f
9:00am 15ft 17s 4 7 mph 1025.7mb 50f 48f
8:00am 15.5ft 17s 4 9 mph 1025.4mb 50f 48f
7:00am 16ft 15s 9 13 mph 1025.1mb 50f 48f
6:00am 15ft 18s 9 13 mph 1024.6mb 50f 49f
5:00am 16.5ft 18s 9 13 mph 1024.2mb 50f 49f
4:00am 16.5ft 20s 18 27 mph 1023.5mb 50f 49f
3:00am 15.5ft 20s 25 29 mph 1022.7mb 50f 51f
2:00am 15ft 14s 25 31 mph 1022.6mb 50f 51f